createdAt,value
2022-08-24T00:01:54.405Z,9.55
2022-08-24T00:03:57.641Z,10.20
2022-08-24T00:06:01.317Z,10.25
2022-08-24T00:08:03.174Z,10.02
2022-08-24T00:10:06.451Z,11.23
2022-08-24T00:12:08.308Z,10.23
2022-08-24T00:14:13.479Z,9.75
2022-08-24T00:16:15.926Z,10.43
2022-08-24T00:18:17.868Z,10.95
2022-08-24T00:20:19.294Z,10.27
2022-08-24T00:22:21.102Z,10.25
2022-08-24T00:24:22.576Z,9.52
2022-08-24T00:26:28.584Z,10.50
2022-08-24T00:28:30.900Z,9.73
2022-08-24T00:30:33.006Z,10.60
2022-08-24T00:32:34.455Z,9.95
2022-08-24T00:34:36.466Z,10.48
2022-08-24T00:36:37.995Z,10.63
2022-08-24T00:38:39.505Z,10.30
2022-08-24T00:40:42.664Z,9.85
2022-08-24T00:42:44.145Z,9.80
2022-08-24T00:44:46.132Z,10.82
2022-08-24T00:46:59.640Z,10.63
2022-08-24T00:49:12.099Z,10.40
2022-08-24T00:51:18.398Z,11.32
2022-08-24T00:53:29.044Z,10.50
2022-08-24T00:55:32.556Z,11.13
2022-08-24T00:57:36.879Z,11.07
2022-08-24T00:59:42.254Z,11.68
2022-08-24T01:01:44.350Z,10.90
2022-08-24T01:03:46.379Z,10.95
2022-08-24T01:05:48.598Z,11.10
2022-08-24T01:07:50.508Z,11.07
2022-08-24T01:09:53.388Z,10.45
2022-08-24T01:11:55.083Z,11.50
2022-08-24T01:13:56.631Z,11.25
2022-08-24T01:16:01.373Z,11.00
2022-08-24T01:18:22.886Z,10.77
2022-08-24T01:20:26.261Z,11.23
2022-08-24T01:22:31.133Z,11.65
2022-08-24T01:24:35.402Z,11.20
2022-08-24T01:26:47.328Z,11.27
2022-08-24T01:28:50.554Z,11.32
2022-08-24T01:30:53.872Z,10.93
2022-08-24T01:33:00.981Z,10.07
2022-08-24T01:35:02.720Z,10.30
2022-08-24T01:37:04.874Z,11.05
2022-08-24T01:39:15.143Z,10.80
2022-08-24T01:41:16.634Z,11.25
2022-08-24T01:43:18.314Z,11.68
2022-08-24T01:45:20.150Z,11.50
2022-08-24T01:47:21.619Z,11.25
2022-08-24T01:49:24.775Z,11.73
2022-08-24T01:51:29.993Z,11.38
2022-08-24T01:53:31.624Z,11.73
2022-08-24T01:55:33.804Z,11.25
2022-08-24T01:57:35.269Z,11.93
2022-08-24T01:59:37.189Z,11.95
2022-08-24T02:01:40.757Z,12.13
2022-08-24T02:03:42.252Z,11.32
2022-08-24T02:05:44.424Z,11.52
2022-08-24T02:07:46.074Z,11.75
2022-08-24T02:09:47.529Z,12.05
2022-08-24T02:11:49.234Z,12.07
2022-08-24T02:13:50.850Z,12.05
2022-08-24T02:15:54.044Z,11.68
2022-08-24T02:17:55.855Z,11.38
2022-08-24T02:19:57.520Z,12.00
2022-08-24T02:22:00.411Z,12.35
2022-08-24T02:26:04.697Z,11.82
2022-08-24T02:28:06.206Z,11.57
2022-08-24T02:30:08.095Z,11.75
2022-08-24T02:32:10.555Z,12.00
2022-08-24T02:34:12.224Z,11.85
2022-08-24T02:36:25.707Z,11.10
2022-08-24T02:38:28.091Z,12.18
2022-08-24T02:40:29.706Z,12.13
2022-08-24T02:42:31.422Z,11.85
2022-08-24T02:44:33.147Z,12.60
2022-08-24T02:46:34.749Z,11.77
2022-08-24T02:48:36.326Z,12.13
2022-08-24T02:50:39.508Z,11.82
2022-08-24T02:52:41.664Z,11.48
2022-08-24T02:54:43.315Z,12.63
2022-08-24T02:56:45.858Z,11.63
2022-08-24T02:58:47.908Z,12.52
2022-08-24T03:00:54.782Z,12.52
2022-08-24T03:02:56.665Z,12.07
2022-08-24T03:04:58.144Z,12.27
2022-08-24T03:06:59.584Z,12.40
2022-08-24T03:09:01.203Z,13.20
2022-08-24T03:11:03.328Z,12.45
2022-08-24T03:13:05.089Z,12.45
2022-08-24T03:15:08.293Z,12.95
2022-08-24T03:17:10.482Z,12.95
2022-08-24T03:19:12.466Z,13.00
2022-08-24T03:21:14.154Z,12.18
2022-08-24T03:23:15.977Z,12.40
2022-08-24T03:25:17.784Z,12.07
2022-08-24T03:27:19.428Z,12.63
2022-08-24T03:29:21.266Z,12.68
2022-08-24T03:31:25.444Z,12.90
2022-08-24T03:33:27.109Z,12.45
2022-08-24T03:35:28.879Z,12.85
2022-08-24T03:37:32.737Z,12.55
2022-08-24T03:39:34.831Z,13.88
2022-08-24T03:41:36.742Z,13.60
2022-08-24T03:43:48.789Z,12.73
2022-08-24T03:45:50.529Z,13.23
2022-08-24T03:47:52.166Z,13.43
2022-08-24T03:49:53.644Z,12.88
2022-08-24T03:51:55.356Z,13.63
2022-08-24T03:53:57.907Z,14.40
2022-08-24T03:55:59.604Z,12.93
2022-08-24T03:58:08.058Z,13.18
2022-08-24T04:00:11.022Z,13.90
2022-08-24T04:02:13.018Z,12.02
2022-08-24T04:04:15.839Z,13.00
2022-08-24T04:06:22.043Z,12.38
2022-08-24T04:08:24.013Z,13.80
2022-08-24T04:10:25.686Z,12.25
2022-08-24T04:12:27.556Z,12.90
2022-08-24T04:14:29.056Z,12.95
2022-08-24T04:16:30.922Z,12.70
2022-08-24T04:18:32.575Z,13.20
2022-08-24T04:20:38.173Z,12.85
2022-08-24T04:22:41.555Z,12.77
2022-08-24T04:24:43.474Z,13.13
2022-08-24T04:26:46.184Z,12.32
2022-08-24T04:28:47.932Z,14.23
2022-08-24T04:30:50.700Z,14.20
2022-08-24T04:32:52.158Z,13.27
2022-08-24T04:34:53.872Z,13.82
2022-08-24T04:36:55.326Z,12.52
2022-08-24T04:38:56.810Z,12.65
2022-08-24T04:41:00.150Z,12.80
2022-08-24T04:43:02.067Z,12.45
2022-08-24T04:45:03.830Z,12.30
2022-08-24T04:47:05.842Z,12.73
2022-08-24T04:49:08.385Z,13.65
2022-08-24T04:51:14.061Z,12.48
2022-08-24T04:53:16.087Z,13.48
2022-08-24T04:55:17.705Z,13.40
2022-08-24T04:57:19.133Z,12.45
2022-08-24T04:59:20.939Z,13.40
2022-08-24T05:01:23.810Z,13.07
2022-08-24T05:05:26.852Z,13.82
2022-08-24T05:07:29.875Z,12.80
2022-08-24T05:09:31.851Z,13.10
2022-08-24T05:11:35.163Z,12.82
2022-08-24T05:13:37.584Z,12.43
2022-08-24T05:15:46.286Z,13.13
2022-08-24T05:17:51.201Z,13.07
2022-08-24T05:19:53.181Z,12.90
2022-08-24T05:21:54.771Z,12.52
2022-08-24T05:23:56.418Z,11.93
2022-08-24T05:26:06.001Z,11.82
2022-08-24T05:28:07.728Z,13.25
2022-08-24T05:30:10.974Z,12.93
2022-08-24T05:32:12.532Z,12.73
2022-08-24T05:34:14.597Z,12.27
2022-08-24T05:36:19.818Z,13.05
2022-08-24T05:38:21.304Z,11.63
2022-08-24T05:40:23.739Z,12.07
2022-08-24T05:42:26.251Z,11.82
2022-08-24T05:44:31.063Z,12.30
2022-08-24T05:46:32.913Z,11.95
2022-08-24T05:48:38.164Z,12.53
2022-08-24T05:50:39.949Z,11.45
2022-08-24T05:52:41.882Z,12.50
2022-08-24T05:54:44.443Z,11.60
2022-08-24T05:56:46.574Z,11.25
2022-08-24T05:58:48.285Z,12.02
2022-08-24T06:00:50.292Z,12.53
2022-08-24T06:02:52.994Z,11.82
2022-08-24T06:06:56.594Z,11.57
2022-08-24T06:08:59.039Z,13.23
2022-08-24T06:11:02.598Z,11.70
2022-08-24T06:13:05.448Z,13.07
2022-08-24T06:15:07.618Z,13.25
2022-08-24T06:17:09.265Z,12.90
2022-08-24T06:19:13.127Z,12.10
2022-08-24T06:21:17.406Z,12.68
2022-08-24T06:23:19.927Z,12.10
2022-08-24T06:25:40.334Z,11.65
2022-08-24T06:27:41.859Z,12.00
2022-08-24T06:29:43.349Z,14.82
2022-08-24T06:31:45.872Z,12.13
2022-08-24T06:33:48.456Z,22.83
2022-08-24T06:35:50.052Z,17.45
2022-08-24T06:37:51.693Z,13.80
2022-08-24T06:39:55.039Z,17.42
2022-08-24T06:41:58.729Z,12.23
2022-08-24T06:44:00.393Z,11.23
2022-08-24T06:46:02.035Z,10.95
2022-08-24T06:48:03.588Z,10.88
2022-08-24T06:50:06.666Z,10.57
2022-08-24T06:52:08.505Z,11.70
2022-08-24T06:54:10.092Z,11.27
2022-08-24T06:56:12.380Z,10.70
2022-08-24T06:58:18.128Z,10.30
2022-08-24T07:00:20.523Z,11.63
2022-08-24T07:04:27.570Z,10.82
2022-08-24T07:06:29.726Z,10.90
2022-08-24T07:08:31.423Z,10.30
2022-08-24T07:10:33.333Z,9.57
2022-08-24T07:12:36.362Z,9.85
2022-08-24T07:14:38.025Z,10.77
2022-08-24T07:16:39.555Z,10.10
2022-08-24T07:18:43.236Z,9.73
2022-08-24T07:20:50.269Z,10.60
2022-08-24T07:24:53.719Z,10.80
2022-08-24T07:26:55.591Z,10.80
2022-08-24T07:29:01.289Z,11.83
2022-08-24T07:31:03.728Z,10.02
2022-08-24T07:33:05.517Z,11.43
2022-08-24T07:35:08.852Z,11.48
2022-08-24T07:37:10.363Z,10.50
2022-08-24T07:39:12.002Z,10.07
2022-08-24T07:41:38.063Z,10.70
2022-08-24T07:43:39.593Z,10.65
2022-08-24T07:45:45.886Z,10.40
2022-08-24T07:49:58.927Z,10.65
2022-08-24T07:52:01.214Z,10.80
2022-08-24T07:54:03.040Z,10.65
2022-08-24T07:56:08.875Z,10.18
2022-08-24T07:58:10.667Z,11.88
2022-08-24T08:00:13.680Z,10.90
2022-08-24T08:02:15.187Z,10.73
2022-08-24T08:04:21.892Z,11.02
2022-08-24T08:06:23.414Z,11.05
2022-08-24T08:08:25.529Z,10.05
2022-08-24T08:10:30.601Z,10.80
2022-08-24T08:12:32.431Z,10.70
2022-08-24T08:14:33.905Z,10.50
2022-08-24T08:16:35.818Z,9.98
2022-08-24T08:18:37.672Z,11.10
2022-08-24T08:20:40.215Z,10.85
2022-08-24T08:23:00.663Z,10.27
2022-08-24T08:25:02.499Z,10.10
2022-08-24T08:27:04.268Z,9.77
2022-08-24T08:29:06.300Z,10.60
2022-08-24T08:31:08.130Z,10.73
2022-08-24T08:33:09.921Z,9.70
2022-08-24T08:35:12.770Z,10.10
2022-08-24T08:37:15.274Z,10.60
2022-08-24T08:39:17.572Z,11.10
2022-08-24T08:41:31.459Z,10.25
2022-08-24T08:43:40.027Z,10.30
2022-08-24T08:45:47.222Z,10.27
2022-08-24T08:48:07.575Z,10.50
2022-08-24T08:50:25.674Z,9.30
2022-08-24T08:52:49.141Z,9.95
2022-08-24T08:55:04.004Z,11.32
2022-08-24T08:57:22.668Z,10.43
2022-08-24T08:59:50.478Z,10.40
2022-08-24T09:02:05.433Z,11.38
2022-08-24T09:04:21.453Z,9.70
2022-08-24T09:06:30.600Z,11.18
2022-08-24T09:08:52.179Z,10.60
2022-08-24T09:10:56.918Z,10.60
2022-08-24T09:13:04.415Z,11.27
2022-08-24T09:15:08.157Z,10.23
2022-08-24T09:17:28.692Z,10.75
2022-08-24T09:19:42.281Z,10.98
2022-08-24T09:22:07.423Z,11.27
2022-08-24T09:24:24.307Z,10.23
2022-08-24T09:26:43.852Z,10.25
2022-08-24T09:29:10.035Z,11.35
2022-08-24T09:34:16.746Z,10.80
2022-08-24T09:36:20.183Z,9.88
2022-08-24T09:38:24.554Z,10.98
2022-08-24T09:40:38.111Z,11.18
2022-08-24T09:42:58.723Z,12.15
2022-08-24T09:45:03.524Z,13.40
2022-08-24T09:47:11.045Z,12.88
2022-08-24T09:49:21.986Z,12.43
2022-08-24T09:51:45.566Z,12.80
2022-08-24T09:53:49.799Z,11.98
2022-08-24T09:56:03.904Z,12.38
2022-08-24T09:58:23.814Z,13.52
2022-08-24T10:00:30.845Z,12.73
2022-08-24T10:02:33.062Z,13.38
2022-08-24T10:04:45.605Z,12.53
2022-08-24T10:06:51.646Z,13.65
2022-08-24T10:08:53.367Z,12.98
2022-08-24T10:11:00.966Z,12.45
2022-08-24T10:13:21.274Z,12.98
2022-08-24T10:15:25.982Z,13.40
2022-08-24T10:17:40.915Z,13.05
2022-08-24T10:19:42.923Z,13.40
2022-08-24T10:21:59.733Z,13.07
2022-08-24T10:24:09.731Z,12.63
2022-08-24T10:26:17.488Z,12.50
2022-08-24T10:28:36.273Z,12.18
2022-08-24T10:30:38.650Z,12.60
2022-08-24T10:32:43.481Z,12.98
2022-08-24T10:34:54.426Z,12.68
2022-08-24T10:37:11.109Z,12.10
2022-08-24T10:39:31.659Z,11.77
2022-08-24T10:41:34.572Z,11.13
2022-08-24T10:43:55.867Z,11.45
2022-08-24T10:46:03.554Z,11.52
2022-08-24T10:48:23.655Z,10.52
2022-08-24T10:50:45.274Z,10.82
2022-08-24T10:53:22.375Z,11.48
2022-08-24T10:55:26.837Z,11.35
2022-08-24T10:57:29.660Z,11.15
2022-08-24T10:59:36.754Z,11.80
2022-08-24T11:01:39.394Z,11.82
2022-08-24T11:03:51.859Z,12.93
2022-08-24T11:05:54.621Z,12.23
2022-08-24T11:08:05.190Z,12.02
2022-08-24T11:10:08.903Z,11.32
2022-08-24T11:12:18.488Z,12.48
2022-08-24T11:14:23.487Z,11.52
2022-08-24T11:16:27.200Z,11.43
2022-08-24T11:18:46.425Z,11.43
2022-08-24T11:20:49.509Z,12.68
2022-08-24T11:23:06.080Z,12.43
2022-08-24T11:25:10.684Z,11.98
2022-08-24T11:27:30.542Z,11.00
2022-08-24T11:29:54.591Z,11.93
2022-08-24T11:31:58.830Z,12.35
2022-08-24T11:34:03.647Z,12.05
2022-08-24T11:36:13.960Z,11.02
2022-08-24T11:38:31.620Z,11.13
2022-08-24T11:40:36.092Z,10.65
2022-08-24T11:42:51.943Z,10.85
2022-08-24T11:44:55.147Z,10.95
2022-08-24T11:47:03.870Z,11.63
2022-08-24T11:49:25.993Z,10.68
2022-08-24T11:51:32.342Z,12.48
2022-08-24T11:56:02.649Z,11.60
2022-08-24T11:58:23.847Z,13.23
2022-08-24T12:00:30.156Z,11.63
2022-08-24T12:02:39.224Z,11.40
2022-08-24T12:05:04.459Z,12.88
2022-08-24T12:07:15.704Z,11.80
2022-08-24T12:09:30.314Z,10.73
2022-08-24T12:11:36.426Z,10.55
2022-08-24T12:13:41.195Z,12.35
2022-08-24T12:15:51.981Z,11.90
2022-08-24T12:18:05.127Z,11.43
2022-08-24T12:20:18.507Z,11.20
2022-08-24T12:22:20.893Z,12.15
2022-08-24T12:24:41.417Z,11.32
2022-08-24T12:26:49.452Z,12.82
2022-08-24T12:28:54.595Z,11.85
2022-08-24T12:30:59.638Z,11.77
2022-08-24T12:33:03.541Z,11.85
2022-08-24T12:35:26.423Z,11.45
2022-08-24T12:37:28.521Z,11.32
2022-08-24T12:39:50.081Z,12.57
2022-08-24T12:42:00.297Z,11.40
2022-08-24T12:44:12.590Z,11.45
2022-08-24T12:46:17.292Z,12.32
2022-08-24T12:48:24.892Z,11.43
2022-08-24T12:50:29.405Z,12.35
2022-08-24T12:52:40.641Z,12.48
2022-08-24T12:55:21.255Z,12.93
2022-08-24T12:57:51.811Z,13.18
2022-08-24T12:59:58.246Z,11.20
2022-08-24T13:02:08.245Z,12.82
2022-08-24T13:04:31.492Z,13.07
2022-08-24T13:06:59.817Z,12.50
2022-08-24T13:09:06.627Z,12.95
2022-08-24T13:11:12.809Z,11.85
2022-08-24T13:13:20.345Z,11.73
2022-08-24T13:15:31.094Z,11.88
2022-08-24T13:17:41.247Z,12.70
2022-08-24T13:19:44.630Z,13.40
2022-08-24T13:21:47.925Z,12.30
2022-08-24T13:24:10.240Z,11.65
2022-08-24T13:26:23.140Z,12.50
2022-08-24T13:28:24.697Z,12.05
2022-08-24T13:30:29.030Z,12.43
2022-08-24T13:32:32.005Z,12.02
2022-08-24T13:34:41.676Z,11.63
2022-08-24T13:36:44.773Z,11.60
2022-08-24T13:38:54.491Z,11.93
2022-08-24T13:41:08.399Z,11.55
2022-08-24T13:43:10.116Z,11.35
2022-08-24T13:45:11.940Z,12.43
2022-08-24T13:47:13.619Z,11.83
2022-08-24T13:49:15.185Z,10.40
2022-08-24T13:51:20.477Z,11.85
2022-08-24T13:53:37.388Z,12.95
2022-08-24T13:55:39.071Z,12.38
2022-08-24T13:57:42.700Z,11.77
2022-08-24T13:59:57.975Z,12.65
2022-08-24T14:02:25.319Z,13.02
2022-08-24T14:04:27.318Z,12.00
2022-08-24T14:06:35.863Z,11.77
2022-08-24T14:08:37.515Z,12.48
2022-08-24T14:10:54.179Z,11.75
2022-08-24T14:13:04.305Z,10.52
2022-08-24T14:15:09.100Z,13.70
2022-08-24T14:17:42.087Z,11.30
2022-08-24T14:19:57.354Z,12.25
2022-08-24T14:22:03.184Z,11.95
2022-08-24T14:24:08.309Z,11.52
2022-08-24T14:26:28.539Z,12.48
2022-08-24T14:28:37.792Z,12.48
2022-08-24T14:30:41.044Z,13.45
2022-08-24T14:32:45.949Z,14.07
2022-08-24T14:34:53.660Z,11.68
2022-08-24T14:37:02.265Z,14.02
2022-08-24T14:39:08.400Z,12.10
2022-08-24T14:41:17.115Z,11.85
2022-08-24T14:43:32.513Z,12.68
2022-08-24T14:45:40.176Z,11.77
2022-08-24T14:47:59.711Z,12.65
2022-08-24T14:50:10.526Z,12.18
2022-08-24T14:52:46.602Z,12.50
2022-08-24T14:55:15.581Z,12.55
2022-08-24T14:57:17.360Z,13.48
2022-08-24T14:59:19.074Z,13.73
2022-08-24T15:01:25.012Z,13.43
2022-08-24T15:03:36.479Z,13.07
2022-08-24T15:05:41.270Z,14.23
2022-08-24T15:07:52.253Z,12.50
2022-08-24T15:09:55.726Z,12.90
2022-08-24T15:12:01.230Z,13.18
2022-08-24T15:14:08.259Z,13.35
2022-08-24T15:16:15.427Z,12.65
2022-08-24T15:18:17.512Z,12.98
2022-08-24T15:20:21.398Z,14.52
2022-08-24T15:22:36.349Z,14.43
2022-08-24T15:24:56.566Z,14.18
2022-08-24T15:27:06.260Z,14.48
2022-08-24T15:29:13.015Z,12.98
2022-08-24T15:31:19.337Z,12.45
2022-08-24T15:33:21.141Z,12.88
2022-08-24T15:35:28.338Z,11.02
2022-08-24T15:37:31.741Z,12.80
2022-08-24T15:39:33.515Z,12.10
2022-08-24T15:41:38.936Z,12.88
2022-08-24T15:43:43.869Z,12.45
2022-08-24T15:45:47.394Z,11.80
2022-08-24T15:47:52.053Z,11.70
2022-08-24T15:49:56.586Z,11.73
2022-08-24T15:52:00.417Z,11.70
2022-08-24T15:54:30.418Z,11.57
2022-08-24T15:56:39.796Z,12.05
2022-08-24T15:58:41.438Z,11.68
2022-08-24T16:01:01.671Z,12.32
2022-08-24T16:03:22.296Z,12.30
2022-08-24T16:05:25.122Z,13.50
2022-08-24T16:07:31.333Z,12.45
2022-08-24T16:09:37.715Z,12.23
2022-08-24T16:11:45.570Z,12.55
2022-08-24T16:13:47.395Z,11.82
2022-08-24T16:16:09.281Z,12.03
2022-08-24T16:18:11.014Z,12.23
2022-08-24T16:20:24.811Z,12.30
2022-08-24T16:22:30.361Z,11.30
2022-08-24T16:24:34.584Z,11.60
2022-08-24T16:26:37.561Z,12.95
2022-08-24T16:28:39.999Z,11.30
2022-08-24T16:30:53.176Z,12.57
2022-08-24T16:32:57.088Z,13.15
2022-08-24T16:35:08.196Z,11.80
2022-08-24T16:37:10.079Z,12.63
2022-08-24T16:39:11.938Z,12.50
2022-08-24T16:41:15.956Z,13.53
2022-08-24T16:43:17.594Z,13.38
2022-08-24T16:45:20.898Z,12.98
2022-08-24T16:47:23.462Z,12.18
2022-08-24T16:51:30.332Z,12.43
2022-08-24T16:53:32.002Z,12.00
2022-08-24T16:55:34.283Z,11.95
2022-08-24T16:57:37.518Z,11.73
2022-08-24T16:59:39.549Z,12.60
2022-08-24T17:01:41.201Z,12.55
2022-08-24T17:03:43.168Z,15.43
2022-08-24T17:05:44.987Z,13.18
2022-08-24T17:07:46.912Z,13.47
2022-08-24T17:09:48.848Z,12.52
2022-08-24T17:11:50.604Z,12.25
2022-08-24T17:13:52.199Z,13.27
2022-08-24T17:15:54.114Z,13.10
2022-08-24T17:18:02.058Z,12.80
2022-08-24T17:20:06.151Z,13.55
2022-08-24T17:22:10.092Z,11.90
2022-08-24T17:24:14.169Z,13.18
2022-08-24T17:26:20.609Z,12.23
2022-08-24T17:28:23.619Z,12.07
2022-08-24T17:30:25.977Z,13.00
2022-08-24T17:32:32.247Z,13.05
2022-08-24T17:34:34.059Z,13.45
2022-08-24T17:36:35.848Z,14.57
2022-08-24T17:38:41.041Z,13.05
2022-08-24T17:40:43.655Z,12.63
2022-08-24T17:42:51.301Z,12.95
2022-08-24T17:44:53.671Z,12.35
2022-08-24T17:46:57.636Z,13.75
2022-08-24T17:48:59.410Z,13.05
2022-08-24T17:51:00.958Z,12.88
2022-08-24T17:53:03.829Z,12.10
2022-08-24T17:57:06.977Z,14.13
2022-08-24T17:59:25.417Z,12.88
2022-08-24T18:01:27.697Z,12.65
2022-08-24T18:03:29.933Z,12.02
2022-08-24T18:05:33.131Z,11.35
2022-08-24T18:07:52.567Z,13.43
2022-08-24T18:09:58.162Z,13.02
2022-08-24T18:12:00.962Z,14.00
2022-08-24T18:14:02.662Z,13.07
2022-08-24T18:16:04.779Z,13.15
2022-08-24T18:18:08.569Z,13.40
2022-08-24T18:20:12.039Z,13.82
2022-08-24T18:22:13.606Z,12.05
2022-08-24T18:24:16.668Z,13.10
2022-08-24T18:26:27.780Z,16.15
2022-08-24T18:28:30.124Z,14.43
2022-08-24T18:30:32.155Z,13.15
2022-08-24T18:32:39.120Z,14.80
2022-08-24T18:34:41.542Z,15.45
2022-08-24T18:36:43.481Z,15.75
2022-08-24T18:38:45.205Z,15.50
2022-08-24T18:40:52.809Z,17.40
2022-08-24T18:42:56.126Z,15.18
2022-08-24T18:46:59.899Z,12.82
2022-08-24T18:49:01.989Z,12.43
2022-08-24T18:51:04.381Z,13.05
2022-08-24T18:53:06.121Z,13.30
2022-08-24T18:55:08.727Z,12.50
2022-08-24T18:57:10.920Z,12.70
2022-08-24T18:59:14.531Z,12.40
2022-08-24T19:01:16.451Z,13.13
2022-08-24T19:03:20.971Z,13.10
2022-08-24T19:05:23.942Z,11.35
2022-08-24T19:07:26.572Z,12.73
2022-08-24T19:09:33.498Z,12.73
2022-08-24T19:11:36.035Z,12.77
2022-08-24T19:13:39.752Z,12.32
2022-08-24T19:15:42.677Z,13.13
2022-08-24T19:17:44.558Z,12.65
2022-08-24T19:19:46.591Z,12.10
2022-08-24T19:21:48.220Z,12.67
2022-08-24T19:23:49.826Z,12.45
2022-08-24T19:25:51.879Z,12.13
2022-08-24T19:27:55.092Z,12.50
2022-08-24T19:29:56.834Z,11.23
2022-08-24T19:31:59.080Z,11.88
2022-08-24T19:34:03.449Z,11.43
2022-08-24T19:36:05.547Z,12.07
2022-08-24T19:38:07.351Z,12.65
2022-08-24T19:40:09.433Z,12.13
2022-08-24T19:42:13.103Z,13.27
2022-08-24T19:44:35.059Z,13.32
2022-08-24T19:46:37.116Z,15.50
2022-08-24T19:48:42.123Z,12.80
2022-08-24T19:50:44.215Z,11.32
2022-08-24T19:52:46.236Z,11.77
2022-08-24T19:54:48.095Z,12.07
2022-08-24T19:56:52.336Z,11.35
2022-08-24T19:59:06.979Z,11.10
2022-08-24T20:01:11.129Z,9.40
2022-08-24T20:03:13.328Z,8.07
2022-08-24T20:05:15.383Z,8.83
2022-08-24T20:07:17.549Z,7.53
2022-08-24T20:09:23.068Z,8.45
2022-08-24T20:11:25.571Z,7.90
2022-08-24T20:13:27.597Z,8.07
2022-08-24T20:15:29.596Z,7.45
2022-08-24T20:17:31.304Z,8.13
2022-08-24T20:19:35.288Z,6.50
2022-08-24T20:21:37.730Z,6.25
2022-08-24T20:23:39.456Z,7.18
2022-08-24T20:25:41.228Z,6.82
2022-08-24T20:27:45.037Z,6.20
2022-08-24T20:29:46.629Z,6.47
2022-08-24T20:31:50.535Z,6.65
2022-08-24T20:33:53.651Z,6.13
2022-08-24T20:35:56.210Z,9.32
2022-08-24T20:37:57.983Z,5.88
2022-08-24T20:40:00.384Z,6.10
2022-08-24T20:42:02.151Z,5.90
2022-08-24T20:44:04.273Z,5.72
2022-08-24T20:46:06.340Z,6.47
2022-08-24T20:48:11.832Z,5.82
2022-08-24T20:50:15.086Z,6.47
2022-08-24T20:52:17.442Z,6.43
2022-08-24T20:54:19.062Z,6.63
2022-08-24T20:56:38.915Z,6.18
2022-08-24T20:58:41.030Z,5.70
2022-08-24T21:00:44.398Z,6.75
2022-08-24T21:02:46.416Z,6.13
2022-08-24T21:04:48.218Z,6.72
2022-08-24T21:06:50.890Z,7.22
2022-08-24T21:08:53.392Z,6.18
2022-08-24T21:10:55.255Z,6.03
2022-08-24T21:12:57.028Z,5.78
2022-08-24T21:14:58.631Z,6.63
2022-08-24T21:17:00.857Z,6.65
2022-08-24T21:19:02.502Z,6.57
2022-08-24T21:21:04.903Z,6.72
2022-08-24T21:23:06.791Z,7.38
2022-08-24T21:25:09.670Z,6.30
2022-08-24T21:29:13.104Z,6.53
2022-08-24T21:31:14.717Z,6.97
2022-08-24T21:33:35.010Z,6.65
2022-08-24T21:35:37.156Z,6.68
2022-08-24T21:37:39.183Z,6.25
2022-08-24T21:39:40.940Z,7.18
2022-08-24T21:41:43.112Z,6.68
2022-08-24T21:43:44.741Z,7.20
2022-08-24T21:45:48.809Z,7.22
2022-08-24T21:47:50.639Z,7.25
2022-08-24T21:49:52.283Z,7.45
2022-08-24T21:51:53.926Z,7.25
2022-08-24T21:53:59.437Z,7.75
2022-08-24T21:56:02.486Z,6.93
2022-08-24T21:58:05.910Z,7.65
2022-08-24T22:00:09.896Z,8.15
2022-08-24T22:02:13.475Z,7.68
2022-08-24T22:04:18.483Z,7.35
2022-08-24T22:06:20.443Z,8.85
2022-08-24T22:08:22.253Z,7.55
2022-08-24T22:10:27.571Z,7.68
2022-08-24T22:12:29.343Z,7.45
2022-08-24T22:14:31.012Z,7.70
2022-08-24T22:16:32.807Z,8.10
2022-08-24T22:18:39.450Z,9.10
2022-08-24T22:20:41.212Z,8.77
2022-08-24T22:22:43.593Z,9.63
2022-08-24T22:24:47.369Z,8.07
2022-08-24T22:26:49.474Z,7.35
2022-08-24T22:28:51.086Z,7.55
2022-08-24T22:30:53.142Z,6.93
2022-08-24T22:32:54.814Z,7.65
2022-08-24T22:34:56.460Z,7.72
2022-08-24T22:37:01.084Z,6.65
2022-08-24T22:39:04.004Z,6.47
2022-08-24T22:41:06.381Z,6.68
2022-08-24T22:43:08.202Z,6.93
2022-08-24T22:45:10.367Z,6.50
2022-08-24T22:47:13.436Z,7.10
2022-08-24T22:49:18.022Z,6.35
2022-08-24T22:51:19.679Z,5.95
2022-08-24T22:53:21.577Z,5.70
2022-08-24T22:55:23.548Z,6.30
2022-08-24T22:57:26.762Z,5.65
2022-08-24T22:59:29.846Z,5.07
2022-08-24T23:01:33.041Z,5.05
2022-08-24T23:03:35.004Z,5.05
2022-08-24T23:05:36.921Z,6.35
2022-08-24T23:07:38.738Z,5.78
2022-08-24T23:09:44.925Z,5.47
2022-08-24T23:11:47.423Z,4.97
2022-08-24T23:13:49.651Z,5.45
2022-08-24T23:15:51.474Z,5.18
2022-08-24T23:17:53.346Z,5.40
2022-08-24T23:20:01.177Z,5.27
2022-08-24T23:22:03.477Z,5.45
2022-08-24T23:24:05.646Z,5.82
2022-08-24T23:26:07.422Z,5.45
2022-08-24T23:28:13.814Z,4.80
2022-08-24T23:30:15.739Z,5.45
2022-08-24T23:32:18.306Z,5.57
2022-08-24T23:34:20.964Z,4.85
2022-08-24T23:36:23.748Z,4.90
2022-08-24T23:38:25.526Z,4.97
2022-08-24T23:40:27.131Z,5.40
2022-08-24T23:42:28.803Z,5.65
2022-08-24T23:44:30.672Z,4.60
2022-08-24T23:46:32.719Z,4.95
2022-08-24T23:48:37.110Z,4.70
2022-08-24T23:50:38.854Z,4.93
2022-08-24T23:52:41.172Z,4.75
2022-08-24T23:54:42.918Z,5.45
2022-08-24T23:56:46.491Z,6.17
2022-08-24T23:58:49.862Z,5.18
